createdAt,value
2022-10-22T00:01:16.373Z,53.77
2022-10-22T00:03:44.731Z,54.05
2022-10-22T00:06:13.147Z,54.01
2022-10-22T00:08:42.592Z,54.42
2022-10-22T00:11:13.706Z,54.33
2022-10-22T00:13:42.877Z,54.15
2022-10-22T00:16:11.941Z,54.74
2022-10-22T00:18:41.344Z,54.59
2022-10-22T00:21:09.975Z,54.36
2022-10-22T00:23:41.498Z,54.85
2022-10-22T00:26:10.819Z,54.57
2022-10-22T00:28:39.530Z,54.46
2022-10-22T00:31:07.951Z,54.69
2022-10-22T00:33:36.361Z,54.68
2022-10-22T00:36:05.991Z,54.82
2022-10-22T00:38:34.617Z,55.21
2022-10-22T00:41:03.139Z,55.09
2022-10-22T00:43:31.723Z,55.13
2022-10-22T00:46:00.087Z,55.14
2022-10-22T00:48:31.238Z,55.17
2022-10-22T00:51:09.063Z,55.42
2022-10-22T00:53:47.275Z,55.37
2022-10-22T00:56:15.956Z,55.46
2022-10-22T00:58:48.749Z,55.48
2022-10-22T01:01:21.520Z,55.37
2022-10-22T01:03:51.178Z,55.27
2022-10-22T01:06:25.150Z,55.62
2022-10-22T01:09:05.803Z,55.74
2022-10-22T01:11:43.412Z,55.76
2022-10-22T01:14:21.194Z,55.48
2022-10-22T01:17:11.310Z,55.28
2022-10-22T01:19:58.223Z,55.56
2022-10-22T01:22:41.125Z,55.35
2022-10-22T01:25:37.793Z,55.10
2022-10-22T01:28:15.274Z,55.36
2022-10-22T01:30:46.140Z,55.07
2022-10-22T01:33:21.815Z,55.44
2022-10-22T01:35:50.728Z,55.04
2022-10-22T01:38:22.753Z,55.21
2022-10-22T01:40:51.700Z,55.32
2022-10-22T01:43:20.416Z,55.47
2022-10-22T01:45:51.925Z,55.86
2022-10-22T01:48:37.288Z,55.21
2022-10-22T01:51:18.951Z,55.63
2022-10-22T01:54:02.646Z,55.49
2022-10-22T01:57:04.611Z,55.43
2022-10-22T01:59:39.183Z,54.77
2022-10-22T02:02:14.663Z,54.17
2022-10-22T02:04:49.450Z,54.16
2022-10-22T02:07:21.947Z,54.32
2022-10-22T02:09:52.953Z,54.65
2022-10-22T02:12:24.843Z,55.06
2022-10-22T02:14:55.122Z,55.45
2022-10-22T02:17:29.113Z,55.28
2022-10-22T02:20:01.419Z,55.43
2022-10-22T02:22:30.355Z,55.35
2022-10-22T02:24:58.817Z,55.01
2022-10-22T02:27:32.259Z,55.00
2022-10-22T02:30:06.896Z,54.48
2022-10-22T02:32:50.100Z,54.48
2022-10-22T02:35:22.325Z,54.85
2022-10-22T02:37:52.751Z,54.67
2022-10-22T02:40:21.560Z,54.82
2022-10-22T02:42:50.896Z,54.91
2022-10-22T02:45:20.810Z,55.32
2022-10-22T02:47:49.155Z,55.43
2022-10-22T02:50:17.512Z,54.45
2022-10-22T02:52:45.917Z,54.30
2022-10-22T02:55:14.592Z,54.60
2022-10-22T02:57:43.220Z,54.18
2022-10-22T03:00:12.879Z,53.83
2022-10-22T03:02:41.248Z,54.24
2022-10-22T03:05:10.001Z,54.64
2022-10-22T03:07:39.233Z,54.42
2022-10-22T03:10:08.241Z,54.40
2022-10-22T03:12:36.684Z,54.95
2022-10-22T03:15:05.538Z,54.98
2022-10-22T03:17:33.936Z,55.32
2022-10-22T03:20:02.399Z,55.48
2022-10-22T03:22:34.280Z,55.73
2022-10-22T03:25:09.115Z,55.96
2022-10-22T03:27:39.453Z,55.80
2022-10-22T03:30:10.182Z,55.79
2022-10-22T03:32:38.767Z,55.64
2022-10-22T03:35:07.479Z,55.69
2022-10-22T03:37:36.780Z,56.12
2022-10-22T03:40:07.580Z,56.32
2022-10-22T03:42:36.985Z,56.24
2022-10-22T03:45:06.042Z,55.88
2022-10-22T03:47:36.675Z,55.90
2022-10-22T03:50:06.175Z,55.99
2022-10-22T03:52:39.909Z,55.96
2022-10-22T03:55:09.173Z,56.04
2022-10-22T03:57:37.938Z,56.06
2022-10-22T04:00:09.296Z,56.19
2022-10-22T04:02:37.638Z,55.69
2022-10-22T04:05:06.536Z,55.75
2022-10-22T04:07:34.984Z,56.09
2022-10-22T04:10:04.070Z,56.13
2022-10-22T04:12:32.492Z,56.03
2022-10-22T04:15:00.956Z,56.07
2022-10-22T04:17:34.464Z,55.96
2022-10-22T04:20:04.280Z,55.99
2022-10-22T04:22:36.702Z,56.09
2022-10-22T04:25:06.667Z,55.98
2022-10-22T04:27:36.528Z,55.77
2022-10-22T04:30:06.501Z,55.53
2022-10-22T04:32:34.857Z,55.39
2022-10-22T04:35:03.670Z,55.85
2022-10-22T04:37:32.845Z,55.78
2022-10-22T04:40:01.448Z,56.18
2022-10-22T04:42:29.952Z,56.24
2022-10-22T04:44:59.534Z,56.40
2022-10-22T04:47:28.887Z,56.34
2022-10-22T04:49:57.399Z,55.78
2022-10-22T04:52:25.754Z,55.42
2022-10-22T04:54:54.124Z,55.81
2022-10-22T04:57:22.429Z,56.25
2022-10-22T04:59:50.813Z,55.79
2022-10-22T05:02:19.108Z,56.28
2022-10-22T05:04:47.581Z,56.13
2022-10-22T05:07:16.021Z,55.93
2022-10-22T05:09:44.554Z,56.25
2022-10-22T05:12:12.994Z,55.92
2022-10-22T05:14:44.040Z,55.96
2022-10-22T05:17:13.279Z,55.77
2022-10-22T05:19:41.644Z,56.17
2022-10-22T05:22:10.011Z,56.04
2022-10-22T05:24:38.461Z,55.75
2022-10-22T05:27:07.149Z,55.85
2022-10-22T05:29:35.561Z,55.74
2022-10-22T05:32:04.144Z,55.67
2022-10-22T05:34:33.463Z,55.44
2022-10-22T05:37:01.931Z,55.62
2022-10-22T05:39:30.396Z,55.60
2022-10-22T05:41:58.742Z,55.33
2022-10-22T05:44:27.253Z,55.30
2022-10-22T05:46:55.644Z,55.36
2022-10-22T05:49:23.996Z,55.02
2022-10-22T05:51:52.395Z,55.17
2022-10-22T05:54:22.307Z,54.96
2022-10-22T05:56:50.730Z,54.82
2022-10-22T05:59:19.088Z,54.83
2022-10-22T06:01:47.602Z,54.67
2022-10-22T06:04:17.995Z,55.08
2022-10-22T06:06:48.967Z,54.93
2022-10-22T06:09:24.842Z,54.74
2022-10-22T06:11:54.212Z,54.87
2022-10-22T06:14:23.831Z,54.95
2022-10-22T06:16:52.810Z,54.90
2022-10-22T06:19:23.002Z,54.97
2022-10-22T06:21:51.368Z,55.25
2022-10-22T06:24:19.736Z,55.42
2022-10-22T06:26:52.373Z,55.08
2022-10-22T06:29:21.224Z,55.31
2022-10-22T06:31:49.673Z,55.71
2022-10-22T06:34:18.989Z,55.14
2022-10-22T06:36:47.548Z,55.12
2022-10-22T06:39:17.835Z,55.34
2022-10-22T06:41:46.856Z,55.12
2022-10-22T06:44:17.740Z,55.01
2022-10-22T06:46:49.557Z,54.75
2022-10-22T06:49:19.070Z,54.73
2022-10-22T06:51:52.193Z,55.19
2022-10-22T06:54:22.252Z,54.60
2022-10-22T06:56:50.709Z,54.41
2022-10-22T06:59:19.060Z,54.51
2022-10-22T07:01:47.525Z,54.43
2022-10-22T07:04:16.260Z,54.46
2022-10-22T07:06:44.711Z,54.29
2022-10-22T07:09:13.182Z,54.26
2022-10-22T07:11:44.626Z,54.44
2022-10-22T07:14:14.263Z,54.57
2022-10-22T07:16:43.193Z,54.21
2022-10-22T07:19:12.426Z,54.24
2022-10-22T07:21:40.979Z,54.71
2022-10-22T07:24:09.387Z,54.45
2022-10-22T07:26:37.923Z,54.35
2022-10-22T07:29:06.348Z,53.94
2022-10-22T07:31:34.903Z,53.99
2022-10-22T07:34:03.563Z,53.54
2022-10-22T07:36:32.032Z,53.92
2022-10-22T07:39:01.113Z,54.22
2022-10-22T07:41:30.443Z,53.89
2022-10-22T07:43:59.427Z,54.15
2022-10-22T07:46:28.789Z,53.91
2022-10-22T07:48:57.131Z,53.57
2022-10-22T07:51:25.567Z,53.96
2022-10-22T07:53:53.924Z,54.12
2022-10-22T07:56:22.427Z,54.76
2022-10-22T07:58:50.840Z,54.59
2022-10-22T08:01:19.313Z,54.52
2022-10-22T08:03:48.771Z,54.25
2022-10-22T08:06:17.751Z,53.97
2022-10-22T08:08:46.410Z,53.52
2022-10-22T08:11:14.901Z,54.15
2022-10-22T08:13:45.700Z,53.38
2022-10-22T08:16:14.891Z,53.72
2022-10-22T08:18:43.451Z,53.59
2022-10-22T08:21:13.101Z,53.67
2022-10-22T08:23:41.529Z,53.17
2022-10-22T08:26:10.827Z,53.32
2022-10-22T08:28:39.315Z,53.02
2022-10-22T08:31:08.311Z,53.22
2022-10-22T08:33:38.900Z,52.98
2022-10-22T08:36:08.170Z,52.96
2022-10-22T08:38:36.668Z,53.06
2022-10-22T08:41:12.147Z,52.25
2022-10-22T08:44:02.492Z,52.25
2022-10-22T08:46:41.002Z,52.01
2022-10-22T08:49:18.778Z,51.84
2022-10-22T08:51:47.456Z,52.09
2022-10-22T08:54:31.877Z,51.87
2022-10-22T08:57:09.015Z,52.14
2022-10-22T08:59:47.103Z,52.50
2022-10-22T09:02:48.988Z,52.02
2022-10-22T09:05:34.336Z,51.08
2022-10-22T09:08:02.808Z,51.29
2022-10-22T09:10:36.463Z,51.69
2022-10-22T09:13:05.013Z,51.01
2022-10-22T09:15:33.408Z,51.26
2022-10-22T09:18:21.777Z,50.91
2022-10-22T09:20:55.876Z,50.70
2022-10-22T09:23:49.865Z,50.35
2022-10-22T09:26:18.267Z,51.13
2022-10-22T09:28:52.095Z,50.68
2022-10-22T09:31:20.562Z,51.03
2022-10-22T09:33:50.798Z,50.66
2022-10-22T09:36:22.808Z,49.15
2022-10-22T09:38:52.442Z,49.79
2022-10-22T09:41:29.836Z,50.29
2022-10-22T09:43:59.209Z,49.69
2022-10-22T09:46:29.930Z,49.70
2022-10-22T09:49:12.100Z,49.63
2022-10-22T09:52:00.046Z,50.26
2022-10-22T09:54:42.169Z,49.88
2022-10-22T09:57:17.471Z,50.31
2022-10-22T09:59:49.210Z,50.60
2022-10-22T10:02:38.298Z,50.16
2022-10-22T10:05:08.595Z,50.42
2022-10-22T10:07:37.415Z,51.78
2022-10-22T10:10:19.306Z,52.39
2022-10-22T10:13:02.258Z,51.66
2022-10-22T10:15:50.778Z,51.46
2022-10-22T10:18:38.422Z,50.47
2022-10-22T10:21:24.065Z,50.42
2022-10-22T10:23:57.856Z,49.85
2022-10-22T10:26:48.962Z,49.96
2022-10-22T10:29:58.917Z,49.72
2022-10-22T10:33:16.444Z,49.68
2022-10-22T10:36:32.832Z,49.34
2022-10-22T10:39:24.067Z,49.69
2022-10-22T10:42:05.744Z,48.94
2022-10-22T10:44:43.186Z,48.63
2022-10-22T10:47:49.184Z,49.51
2022-10-22T10:50:27.111Z,49.14
2022-10-22T10:53:04.689Z,49.41
2022-10-22T10:55:41.998Z,48.83
2022-10-22T10:58:36.964Z,48.78
2022-10-22T11:01:18.998Z,48.89
2022-10-22T11:04:04.307Z,48.80
2022-10-22T11:06:34.135Z,48.12
2022-10-22T11:09:07.607Z,48.88
2022-10-22T11:11:46.659Z,48.33
2022-10-22T11:14:21.052Z,48.13
2022-10-22T11:17:01.871Z,47.66
2022-10-22T11:19:51.543Z,47.65
2022-10-22T11:22:28.538Z,47.28
2022-10-22T11:25:22.234Z,47.66
2022-10-22T11:28:06.776Z,47.57
2022-10-22T11:30:40.459Z,47.21
2022-10-22T11:33:18.424Z,47.08
2022-10-22T11:35:49.988Z,46.57
2022-10-22T11:38:23.766Z,46.81
2022-10-22T11:41:06.009Z,47.12
2022-10-22T11:43:58.590Z,46.93
2022-10-22T11:46:34.297Z,47.01
2022-10-22T11:49:13.830Z,47.85
2022-10-22T11:51:45.403Z,46.53
2022-10-22T11:54:32.659Z,47.05
2022-10-22T11:57:16.292Z,46.50
2022-10-22T12:00:09.717Z,46.88
2022-10-22T12:02:45.878Z,46.33
2022-10-22T12:05:34.972Z,45.76
2022-10-22T12:08:17.752Z,46.10
2022-10-22T12:11:06.581Z,46.46
2022-10-22T12:13:58.717Z,46.22
2022-10-22T12:16:54.699Z,45.64
2022-10-22T12:19:30.186Z,45.50
2022-10-22T12:22:10.973Z,46.04
2022-10-22T12:24:44.631Z,46.18
2022-10-22T12:27:35.638Z,44.82
2022-10-22T12:30:23.614Z,46.17
2022-10-22T12:32:56.662Z,45.39
2022-10-22T12:35:29.662Z,44.65
2022-10-22T12:38:01.448Z,44.92
2022-10-22T12:40:34.112Z,44.50
2022-10-22T12:45:40.339Z,44.34
2022-10-22T12:48:14.645Z,44.79
2022-10-22T12:50:49.439Z,45.38
2022-10-22T12:53:22.474Z,44.97
2022-10-22T12:55:52.474Z,44.57
2022-10-22T12:58:26.433Z,45.50
2022-10-22T13:01:02.071Z,43.85
2022-10-22T13:03:39.657Z,44.06
2022-10-22T13:06:26.306Z,44.94
2022-10-22T13:09:03.913Z,44.32
2022-10-22T13:11:42.743Z,44.30
2022-10-22T13:14:32.373Z,45.03
2022-10-22T13:17:19.161Z,44.78
2022-10-22T13:20:02.122Z,44.46
2022-10-22T13:22:38.942Z,44.18
2022-10-22T13:25:13.463Z,43.84
2022-10-22T13:27:54.331Z,43.98
2022-10-22T13:30:53.260Z,43.75
2022-10-22T13:33:26.881Z,44.60
2022-10-22T13:35:56.726Z,43.71
2022-10-22T13:38:27.253Z,43.34
2022-10-22T13:40:56.368Z,44.85
2022-10-22T13:43:25.588Z,43.45
2022-10-22T13:46:03.048Z,44.14
2022-10-22T13:48:31.496Z,43.10
2022-10-22T13:50:59.969Z,44.34
2022-10-22T13:53:30.216Z,45.15
2022-10-22T13:55:58.668Z,44.15
2022-10-22T13:58:27.223Z,44.35
2022-10-22T14:00:59.373Z,44.27
2022-10-22T14:03:33.856Z,43.19
2022-10-22T14:06:02.340Z,43.13
2022-10-22T14:08:31.854Z,43.69
2022-10-22T14:11:00.179Z,43.10
2022-10-22T14:13:28.651Z,42.31
2022-10-22T14:15:57.510Z,43.55
2022-10-22T14:18:31.452Z,43.57
2022-10-22T14:21:05.117Z,43.47
2022-10-22T14:23:34.965Z,42.68
2022-10-22T14:26:03.901Z,43.64
2022-10-22T14:28:41.405Z,43.57
2022-10-22T14:31:20.438Z,42.38
2022-10-22T14:33:49.999Z,43.26
2022-10-22T14:36:19.463Z,42.44
2022-10-22T14:38:48.304Z,42.73
2022-10-22T14:41:21.010Z,42.74
2022-10-22T14:43:50.979Z,42.71
2022-10-22T14:46:19.907Z,43.76
2022-10-22T14:48:48.428Z,42.53
2022-10-22T14:51:21.523Z,42.87
2022-10-22T14:53:49.970Z,42.39
2022-10-22T14:56:21.364Z,42.39
2022-10-22T14:58:50.423Z,42.52
2022-10-22T15:01:18.751Z,42.87
2022-10-22T15:03:47.228Z,42.77
2022-10-22T15:06:15.715Z,43.31
2022-10-22T15:08:44.908Z,43.00
2022-10-22T15:11:13.461Z,43.05
2022-10-22T15:13:42.291Z,42.55
2022-10-22T15:16:13.564Z,42.75
2022-10-22T15:18:42.420Z,42.58
2022-10-22T15:21:29.058Z,43.42
2022-10-22T15:23:57.596Z,42.69
2022-10-22T15:26:26.043Z,42.97
2022-10-22T15:28:54.682Z,43.00
2022-10-22T15:31:47.897Z,42.09
2022-10-22T15:34:28.704Z,43.34
2022-10-22T15:36:59.290Z,43.90
2022-10-22T15:39:28.257Z,42.79
2022-10-22T15:41:57.270Z,43.07
2022-10-22T15:44:30.760Z,43.91
2022-10-22T15:46:59.570Z,43.66
2022-10-22T15:49:28.749Z,44.14
2022-10-22T15:51:57.200Z,44.00
2022-10-22T15:54:28.561Z,44.28
2022-10-22T15:56:58.629Z,44.51
2022-10-22T15:59:27.229Z,44.53
2022-10-22T16:01:55.618Z,44.33
2022-10-22T16:04:24.029Z,44.99
2022-10-22T16:06:53.968Z,44.79
2022-10-22T16:09:24.139Z,45.15
2022-10-22T16:14:28.661Z,45.16
2022-10-22T16:16:57.207Z,44.86
2022-10-22T16:19:26.115Z,44.95
2022-10-22T16:21:56.226Z,44.62
2022-10-22T16:24:24.862Z,45.05
2022-10-22T16:26:53.842Z,45.07
2022-10-22T16:29:22.336Z,44.69
2022-10-22T16:31:50.888Z,45.16
2022-10-22T16:34:19.254Z,44.90
2022-10-22T16:36:48.817Z,45.52
2022-10-22T16:39:17.389Z,45.41
2022-10-22T16:41:45.732Z,45.50
2022-10-22T16:44:14.100Z,45.73
2022-10-22T16:46:42.463Z,45.86
2022-10-22T16:49:10.991Z,46.05
2022-10-22T16:51:39.520Z,45.73
2022-10-22T16:54:11.288Z,45.76
2022-10-22T16:56:41.199Z,45.72
2022-10-22T16:59:09.625Z,45.59
2022-10-22T17:01:40.953Z,45.89
2022-10-22T17:04:10.275Z,45.60
2022-10-22T17:06:39.151Z,46.06
2022-10-22T17:09:07.809Z,45.91
2022-10-22T17:11:39.143Z,45.84
2022-10-22T17:14:09.856Z,46.05
2022-10-22T17:16:38.328Z,45.82
2022-10-22T17:19:06.782Z,46.19
2022-10-22T17:21:35.182Z,46.22
2022-10-22T17:24:03.738Z,45.91
2022-10-22T17:26:34.357Z,46.04
2022-10-22T17:29:04.131Z,46.16
2022-10-22T17:31:38.004Z,46.18
2022-10-22T17:34:10.419Z,46.29
2022-10-22T17:36:39.033Z,46.07
2022-10-22T17:39:08.350Z,46.48
2022-10-22T17:41:37.492Z,46.53
2022-10-22T17:44:08.887Z,46.21
2022-10-22T17:46:38.142Z,46.78
2022-10-22T17:49:15.273Z,46.60
2022-10-22T17:51:43.964Z,46.39
2022-10-22T17:54:14.326Z,46.50
2022-10-22T17:56:43.090Z,46.52
2022-10-22T17:59:14.449Z,46.85
2022-10-22T18:01:46.006Z,46.69
2022-10-22T18:04:17.723Z,46.99
2022-10-22T18:06:48.317Z,47.05
2022-10-22T18:09:19.141Z,46.71
2022-10-22T18:11:50.307Z,47.10
2022-10-22T18:14:20.836Z,47.56
2022-10-22T18:16:49.882Z,46.93
2022-10-22T18:19:22.401Z,47.08
2022-10-22T18:21:50.855Z,47.34
2022-10-22T18:24:20.358Z,46.92
2022-10-22T18:26:48.967Z,47.06
2022-10-22T18:29:19.710Z,46.76
2022-10-22T18:31:48.521Z,47.07
2022-10-22T18:34:19.112Z,47.17
2022-10-22T18:36:50.145Z,47.48
2022-10-22T18:39:19.512Z,47.63
2022-10-22T18:41:48.060Z,47.69
2022-10-22T18:44:16.918Z,47.21
2022-10-22T18:46:45.305Z,47.20
2022-10-22T18:49:18.318Z,46.86
2022-10-22T18:51:52.467Z,46.86
2022-10-22T18:54:23.877Z,46.93
2022-10-22T18:56:55.504Z,47.36
2022-10-22T18:59:26.921Z,47.43
2022-10-22T19:01:59.259Z,47.59
2022-10-22T19:04:33.185Z,47.74
2022-10-22T19:07:01.760Z,48.23
2022-10-22T19:09:30.470Z,48.56
2022-10-22T19:11:59.018Z,48.53
2022-10-22T19:14:28.590Z,48.47
2022-10-22T19:16:56.987Z,48.92
2022-10-22T19:19:27.604Z,48.87
2022-10-22T19:21:56.578Z,49.38
2022-10-22T19:24:25.396Z,49.59
2022-10-22T19:26:53.864Z,49.70
2022-10-22T19:29:22.296Z,49.43
2022-10-22T19:31:51.438Z,49.42
2022-10-22T19:34:20.601Z,48.96
2022-10-22T19:36:51.693Z,48.34
2022-10-22T19:39:20.593Z,48.00
2022-10-22T19:41:49.119Z,48.34
2022-10-22T19:44:17.606Z,48.60
2022-10-22T19:46:45.954Z,48.22
2022-10-22T19:49:17.618Z,48.41
2022-10-22T19:51:51.378Z,48.03
2022-10-22T19:54:20.393Z,48.92
2022-10-22T19:56:49.337Z,48.49
2022-10-22T19:59:20.358Z,48.40
2022-10-22T20:01:50.313Z,48.46
2022-10-22T20:04:19.337Z,48.59
2022-10-22T20:06:47.894Z,48.58
2022-10-22T20:09:16.435Z,48.86
2022-10-22T20:11:45.015Z,48.25
2022-10-22T20:14:13.781Z,48.58
2022-10-22T20:16:42.552Z,48.72
2022-10-22T20:19:15.863Z,49.29
2022-10-22T20:21:45.626Z,49.39
2022-10-22T20:24:14.481Z,49.15
2022-10-22T20:26:46.002Z,48.67
2022-10-22T20:29:14.922Z,49.04
2022-10-22T20:31:43.282Z,49.64
2022-10-22T20:34:11.812Z,49.64
2022-10-22T20:36:40.890Z,49.72
2022-10-22T20:39:12.667Z,49.31
2022-10-22T20:41:41.526Z,48.85
2022-10-22T20:44:15.009Z,48.86
2022-10-22T20:46:44.277Z,49.28
2022-10-22T20:49:17.764Z,49.17
2022-10-22T20:51:46.536Z,48.99
2022-10-22T20:54:15.502Z,49.33
2022-10-22T20:56:44.032Z,49.83
2022-10-22T20:59:12.694Z,49.71
2022-10-22T21:01:44.406Z,49.41
2022-10-22T21:04:13.717Z,49.09
2022-10-22T21:06:43.088Z,49.21
2022-10-22T21:09:14.007Z,49.53
2022-10-22T21:11:43.262Z,49.06
2022-10-22T21:14:13.971Z,48.98
2022-10-22T21:16:43.976Z,49.21
2022-10-22T21:19:12.393Z,48.91
2022-10-22T21:21:41.132Z,49.03
2022-10-22T21:24:09.748Z,49.33
2022-10-22T21:26:40.660Z,49.87
2022-10-22T21:29:10.823Z,49.45
2022-10-22T21:31:40.372Z,49.41
2022-10-22T21:34:09.806Z,49.59
2022-10-22T21:36:38.727Z,49.63
2022-10-22T21:39:07.438Z,49.64
2022-10-22T21:41:37.222Z,49.87
2022-10-22T21:44:05.665Z,49.99
2022-10-22T21:46:34.463Z,50.30
2022-10-22T21:49:05.043Z,50.05
2022-10-22T21:51:35.772Z,50.38
2022-10-22T21:54:04.491Z,49.56
2022-10-22T21:56:34.705Z,49.57
2022-10-22T21:59:04.267Z,49.54
2022-10-22T22:01:33.103Z,50.37
2022-10-22T22:04:02.259Z,50.83
2022-10-22T22:06:33.552Z,51.25
2022-10-22T22:09:04.528Z,50.60
2022-10-22T22:11:33.672Z,50.87
2022-10-22T22:14:02.063Z,50.70
2022-10-22T22:16:33.185Z,49.99
2022-10-22T22:19:08.758Z,49.75
2022-10-22T22:21:39.608Z,50.35
2022-10-22T22:24:09.566Z,50.29
2022-10-22T22:26:39.079Z,50.36
2022-10-22T22:29:07.464Z,50.15
2022-10-22T22:31:37.504Z,49.66
2022-10-22T22:34:14.917Z,49.23
2022-10-22T22:36:45.833Z,49.88
2022-10-22T22:39:25.236Z,49.42
2022-10-22T22:41:53.809Z,50.28
2022-10-22T22:44:22.157Z,50.22
2022-10-22T22:49:18.952Z,50.90
2022-10-22T22:51:49.005Z,50.71
2022-10-22T22:54:17.471Z,50.39
2022-10-22T22:56:45.895Z,50.62
2022-10-22T22:59:14.252Z,51.00
2022-10-22T23:01:42.632Z,50.91
2022-10-22T23:04:14.065Z,50.40
2022-10-22T23:06:42.627Z,50.61
2022-10-22T23:09:13.332Z,50.67
2022-10-22T23:11:43.490Z,50.32
2022-10-22T23:14:14.656Z,50.55
2022-10-22T23:16:46.192Z,50.88
2022-10-22T23:19:16.824Z,50.82
2022-10-22T23:21:48.060Z,50.59
2022-10-22T23:24:19.018Z,50.09
2022-10-22T23:26:52.287Z,50.41
2022-10-22T23:29:26.749Z,50.25
2022-10-22T23:31:58.478Z,50.27
2022-10-22T23:34:28.578Z,51.00
2022-10-22T23:36:57.083Z,51.24
2022-10-22T23:39:27.751Z,50.58
2022-10-22T23:41:56.771Z,50.98
2022-10-22T23:44:25.866Z,51.32
2022-10-22T23:46:55.089Z,51.56
2022-10-22T23:49:23.489Z,51.28
2022-10-22T23:51:51.912Z,50.87
2022-10-22T23:54:20.308Z,51.02
2022-10-22T23:56:48.763Z,50.85
2022-10-22T23:59:17.136Z,50.99
